sensor_id;sensor_type;location;lat;lon;timestamp;pressure;altitude;pressure_sealevel;temperature;humidity
71735;BME280;59577;52.122;5.406;2023-05-14T00:01:17;102101.38;;;14.00;72.47
71735;BME280;59577;52.122;5.406;2023-05-14T00:03:43;102103.16;;;13.96;72.65
71735;BME280;59577;52.122;5.406;2023-05-14T00:06:10;102095.59;;;13.89;72.79
71735;BME280;59577;52.122;5.406;2023-05-14T00:08:36;102096.63;;;13.85;72.90
71735;BME280;59577;52.122;5.406;2023-05-14T00:11:03;102096.63;;;13.85;72.89
71735;BME280;59577;52.122;5.406;2023-05-14T00:13:29;102094.59;;;13.82;72.43
71735;BME280;59577;52.122;5.406;2023-05-14T00:15:56;102083.25;;;13.80;72.94
71735;BME280;59577;52.122;5.406;2023-05-14T00:18:22;102086.31;;;13.78;72.93
71735;BME280;59577;52.122;5.406;2023-05-14T00:20:49;102089.03;;;13.78;73.53
71735;BME280;59577;52.122;5.406;2023-05-14T00:23:20;102080.75;;;13.75;73.55
71735;BME280;59577;52.122;5.406;2023-05-14T00:25:47;102078.72;;;13.71;73.93
71735;BME280;59577;52.122;5.406;2023-05-14T00:28:14;102071.72;;;13.70;73.79
71735;BME280;59577;52.122;5.406;2023-05-14T00:30:40;102076.13;;;13.63;73.70
71735;BME280;59577;52.122;5.406;2023-05-14T00:33:07;102070.47;;;13.56;74.25
71735;BME280;59577;52.122;5.406;2023-05-14T00:35:34;102067.75;;;13.56;74.32
71735;BME280;59577;52.122;5.406;2023-05-14T00:38:01;102067.19;;;13.50;74.62
71735;BME280;59577;52.122;5.406;2023-05-14T00:40:28;102067.63;;;13.52;74.38
71735;BME280;59577;52.122;5.406;2023-05-14T00:42:55;102061.06;;;13.53;74.51
71735;BME280;59577;52.122;5.406;2023-05-14T00:45:22;102063.44;;;13.54;74.44
71735;BME280;59577;52.122;5.406;2023-05-14T00:47:48;102064.25;;;13.55;74.42
71735;BME280;59577;52.122;5.406;2023-05-14T00:50:16;102052.00;;;13.49;74.57
71735;BME280;59577;52.122;5.406;2023-05-14T00:52:43;102052.88;;;13.53;74.66
71735;BME280;59577;52.122;5.406;2023-05-14T00:55:11;102052.44;;;13.51;75.38
71735;BME280;59577;52.122;5.406;2023-05-14T00:57:41;102055.88;;;13.48;75.50
71735;BME280;59577;52.122;5.406;2023-05-14T01:00:09;102042.94;;;13.45;75.13
71735;BME280;59577;52.122;5.406;2023-05-14T01:02:35;102041.25;;;13.40;75.71
71735;BME280;59577;52.122;5.406;2023-05-14T01:05:02;102039.53;;;13.35;75.77
71735;BME280;59577;52.122;5.406;2023-05-14T01:07:40;102048.03;;;13.34;76.37
71735;BME280;59577;52.122;5.406;2023-05-14T01:10:41;102058.47;;;13.32;76.92
71735;BME280;59577;52.122;5.406;2023-05-14T01:13:37;102052.88;;;13.28;76.49
71735;BME280;59577;52.122;5.406;2023-05-14T01:16:06;102054.94;;;13.19;76.38
71735;BME280;59577;52.122;5.406;2023-05-14T01:18:39;102047.78;;;13.14;76.54
71735;BME280;59577;52.122;5.406;2023-05-14T01:21:26;102046.88;;;13.10;76.98
71735;BME280;59577;52.122;5.406;2023-05-14T01:23:58;102048.56;;;13.03;76.61
71735;BME280;59577;52.122;5.406;2023-05-14T01:26:24;102038.38;;;13.00;76.98
71735;BME280;59577;52.122;5.406;2023-05-14T01:28:52;102040.28;;;12.99;77.23
71735;BME280;59577;52.122;5.406;2023-05-14T01:31:24;102048.66;;;12.94;76.83
71735;BME280;59577;52.122;5.406;2023-05-14T01:33:53;102053.19;;;12.90;77.01
71735;BME280;59577;52.122;5.406;2023-05-14T01:36:22;102038.00;;;12.89;77.17
71735;BME280;59577;52.122;5.406;2023-05-14T01:38:49;102048.09;;;12.88;77.43
71735;BME280;59577;52.122;5.406;2023-05-14T01:41:17;102044.59;;;12.88;77.89
71735;BME280;59577;52.122;5.406;2023-05-14T01:43:44;102048.88;;;12.89;77.56
71735;BME280;59577;52.122;5.406;2023-05-14T01:46:11;102046.97;;;12.89;76.85
71735;BME280;59577;52.122;5.406;2023-05-14T01:48:37;102040.72;;;12.89;77.30
71735;BME280;59577;52.122;5.406;2023-05-14T01:51:04;102040.28;;;12.87;77.20
71735;BME280;59577;52.122;5.406;2023-05-14T01:53:30;102037.22;;;12.88;77.35
71735;BME280;59577;52.122;5.406;2023-05-14T01:55:59;102033.72;;;12.88;77.29
71735;BME280;59577;52.122;5.406;2023-05-14T01:58:26;102037.09;;;12.85;77.51
71735;BME280;59577;52.122;5.406;2023-05-14T02:00:53;102035.06;;;12.82;77.53
71735;BME280;59577;52.122;5.406;2023-05-14T02:03:19;102023.50;;;12.72;77.79
71735;BME280;59577;52.122;5.406;2023-05-14T02:05:46;102024.97;;;12.70;78.55
71735;BME280;59577;52.122;5.406;2023-05-14T02:08:12;102015.47;;;12.64;78.53
71735;BME280;59577;52.122;5.406;2023-05-14T02:10:39;102022.34;;;12.61;78.44
71735;BME280;59577;52.122;5.406;2023-05-14T02:13:05;102012.03;;;12.54;78.39
71735;BME280;59577;52.122;5.406;2023-05-14T02:15:32;102014.63;;;12.51;78.19
71735;BME280;59577;52.122;5.406;2023-05-14T02:17:58;102010.66;;;12.48;78.17
71735;BME280;59577;52.122;5.406;2023-05-14T02:20:25;102007.63;;;12.50;78.33
71735;BME280;59577;52.122;5.406;2023-05-14T02:22:51;102007.63;;;12.50;78.69
71735;BME280;59577;52.122;5.406;2023-05-14T02:25:17;102017.69;;;12.49;78.56
71735;BME280;59577;52.122;5.406;2023-05-14T02:27:44;102015.97;;;12.45;79.01
71735;BME280;59577;52.122;5.406;2023-05-14T02:30:11;102018.69;;;12.45;79.52
71735;BME280;59577;52.122;5.406;2023-05-14T02:32:38;102005.00;;;12.41;79.16
71735;BME280;59577;52.122;5.406;2023-05-14T02:35:05;102007.25;;;12.39;79.28
71735;BME280;59577;52.122;5.406;2023-05-14T02:37:31;102005.66;;;12.38;79.16
71735;BME280;59577;52.122;5.406;2023-05-14T02:40:00;102002.50;;;12.36;78.67
71735;BME280;59577;52.122;5.406;2023-05-14T02:42:26;102011.94;;;12.30;79.00
71735;BME280;59577;52.122;5.406;2023-05-14T02:44:53;102001.09;;;12.30;79.59
71735;BME280;59577;52.122;5.406;2023-05-14T02:47:19;102004.63;;;12.30;79.34
71735;BME280;59577;52.122;5.406;2023-05-14T02:49:46;102002.25;;;12.29;79.00
71735;BME280;59577;52.122;5.406;2023-05-14T02:52:13;101997.94;;;12.28;79.45
71735;BME280;59577;52.122;5.406;2023-05-14T02:54:39;102004.63;;;12.30;79.62
71735;BME280;59577;52.122;5.406;2023-05-14T02:57:06;101999.19;;;12.30;79.41
71735;BME280;59577;52.122;5.406;2023-05-14T02:59:33;101992.03;;;12.26;79.50
71735;BME280;59577;52.122;5.406;2023-05-14T03:01:59;101997.47;;;12.26;79.50
71735;BME280;59577;52.122;5.406;2023-05-14T03:04:26;101996.69;;;12.25;79.55
71735;BME280;59577;52.122;5.406;2023-05-14T03:06:53;102000.84;;;12.22;79.64
71735;BME280;59577;52.122;5.406;2023-05-14T03:09:19;102003.09;;;12.20;79.99
71735;BME280;59577;52.122;5.406;2023-05-14T03:11:46;101997.22;;;12.18;79.98
71735;BME280;59577;52.122;5.406;2023-05-14T03:14:12;101997.56;;;12.17;79.63
71735;BME280;59577;52.122;5.406;2023-05-14T03:16:39;101992.47;;;12.15;80.20
71735;BME280;59577;52.122;5.406;2023-05-14T03:19:07;101989.16;;;12.10;80.46
71735;BME280;59577;52.122;5.406;2023-05-14T03:21:35;101992.22;;;12.08;80.56
71735;BME280;59577;52.122;5.406;2023-05-14T03:24:02;102001.00;;;12.05;80.57
71735;BME280;59577;52.122;5.406;2023-05-14T03:26:28;101997.03;;;12.02;80.83
71735;BME280;59577;52.122;5.406;2023-05-14T03:28:54;101996.56;;;12.00;81.42
71735;BME280;59577;52.122;5.406;2023-05-14T03:31:21;101998.03;;;11.98;81.00
71735;BME280;59577;52.122;5.406;2023-05-14T03:33:48;101991.69;;;11.94;81.04
71735;BME280;59577;52.122;5.406;2023-05-14T03:36:14;102003.34;;;11.94;81.26
71735;BME280;59577;52.122;5.406;2023-05-14T03:38:41;101998.25;;;11.93;81.20
71735;BME280;59577;52.122;5.406;2023-05-14T03:41:07;102000.97;;;11.93;81.32
71735;BME280;59577;52.122;5.406;2023-05-14T03:43:34;101998.25;;;11.93;81.38
71735;BME280;59577;52.122;5.406;2023-05-14T03:46:00;101998.69;;;11.95;81.57
71735;BME280;59577;52.122;5.406;2023-05-14T03:48:27;101994.06;;;11.95;81.10
71735;BME280;59577;52.122;5.406;2023-05-14T03:50:54;101995.00;;;11.99;80.77
71735;BME280;59577;52.122;5.406;2023-05-14T03:53:20;101991.16;;;12.00;81.24
71735;BME280;59577;52.122;5.406;2023-05-14T03:55:47;101983.47;;;12.02;81.28
71735;BME280;59577;52.122;5.406;2023-05-14T03:58:13;101982.78;;;12.06;81.10
71735;BME280;59577;52.122;5.406;2023-05-14T04:00:41;101985.50;;;12.06;81.29
71735;BME280;59577;52.122;5.406;2023-05-14T04:03:08;101989.50;;;12.08;81.41
71735;BME280;59577;52.122;5.406;2023-05-14T04:05:34;101984.28;;;12.03;81.30
71735;BME280;59577;52.122;5.406;2023-05-14T04:08:01;101975.31;;;12.02;81.51
71735;BME280;59577;52.122;5.406;2023-05-14T04:10:28;101977.03;;;12.07;81.11
71735;BME280;59577;52.122;5.406;2023-05-14T04:12:55;101977.03;;;12.07;81.42
71735;BME280;59577;52.122;5.406;2023-05-14T04:15:21;101974.00;;;12.09;81.45
71735;BME280;59577;52.122;5.406;2023-05-14T04:17:48;101976.38;;;12.10;81.47
71735;BME280;59577;52.122;5.406;2023-05-14T04:20:15;101981.03;;;12.10;81.60
71735;BME280;59577;52.122;5.406;2023-05-14T04:22:41;101980.53;;;12.08;81.38
71735;BME280;59577;52.122;5.406;2023-05-14T04:25:08;101972.06;;;12.09;81.53
71735;BME280;59577;52.122;5.406;2023-05-14T04:27:34;101970.50;;;12.08;81.71
71735;BME280;59577;52.122;5.406;2023-05-14T04:30:00;101978.97;;;12.07;81.30
71735;BME280;59577;52.122;5.406;2023-05-14T04:32:27;101966.84;;;12.04;81.73
71735;BME280;59577;52.122;5.406;2023-05-14T04:34:55;101971.28;;;12.09;81.74
71735;BME280;59577;52.122;5.406;2023-05-14T04:37:22;101972.56;;;12.11;81.68
71735;BME280;59577;52.122;5.406;2023-05-14T04:39:48;101978.09;;;12.15;81.97
71735;BME280;59577;52.122;5.406;2023-05-14T04:42:15;101976.28;;;12.19;81.75
71735;BME280;59577;52.122;5.406;2023-05-14T04:44:42;101980.53;;;12.29;81.63
71735;BME280;59577;52.122;5.406;2023-05-14T04:47:08;101979.94;;;12.35;81.22
71735;BME280;59577;52.122;5.406;2023-05-14T04:49:34;101979.31;;;12.51;80.78
71735;BME280;59577;52.122;5.406;2023-05-14T04:52:01;101980.94;;;12.64;80.78
71735;BME280;59577;52.122;5.406;2023-05-14T04:54:28;101984.22;;;12.70;80.20
71735;BME280;59577;52.122;5.406;2023-05-14T04:56:54;101976.78;;;12.91;80.06
71735;BME280;59577;52.122;5.406;2023-05-14T04:59:21;101977.31;;;13.09;79.48
71735;BME280;59577;52.122;5.406;2023-05-14T05:01:47;101984.25;;;13.19;79.10
71735;BME280;59577;52.122;5.406;2023-05-14T05:04:14;101982.63;;;13.30;79.18
71735;BME280;59577;52.122;5.406;2023-05-14T05:06:41;101986.50;;;13.42;78.50
71735;BME280;59577;52.122;5.406;2023-05-14T05:09:08;101983.66;;;13.50;77.94
71735;BME280;59577;52.122;5.406;2023-05-14T05:11:35;101980.47;;;13.61;77.72
71735;BME280;59577;52.122;5.406;2023-05-14T05:14:01;101985.41;;;13.71;77.71
71735;BME280;59577;52.122;5.406;2023-05-14T05:16:28;101982.75;;;13.87;77.59
71735;BME280;59577;52.122;5.406;2023-05-14T05:18:54;101985.69;;;13.94;77.02
71735;BME280;59577;52.122;5.406;2023-05-14T05:21:21;101982.91;;;14.06;77.00
71735;BME280;59577;52.122;5.406;2023-05-14T05:23:47;101985.47;;;14.43;76.16
71735;BME280;59577;52.122;5.406;2023-05-14T05:26:14;101981.84;;;15.19;73.23
71735;BME280;59577;52.122;5.406;2023-05-14T05:28:40;101987.28;;;16.09;70.82
71735;BME280;59577;52.122;5.406;2023-05-14T05:31:07;101992.56;;;17.14;68.57
71735;BME280;59577;52.122;5.406;2023-05-14T05:33:34;101990.72;;;18.16;65.04
71735;BME280;59577;52.122;5.406;2023-05-14T05:36:01;101992.88;;;19.38;61.38
71735;BME280;59577;52.122;5.406;2023-05-14T05:38:28;101997.06;;;19.87;58.82
71735;BME280;59577;52.122;5.406;2023-05-14T05:40:54;101993.22;;;20.09;57.56
71735;BME280;59577;52.122;5.406;2023-05-14T05:43:21;101979.50;;;20.31;56.90
71735;BME280;59577;52.122;5.406;2023-05-14T05:45:47;101984.59;;;20.22;55.94
71735;BME280;59577;52.122;5.406;2023-05-14T05:48:14;101987.38;;;18.78;59.36
71735;BME280;59577;52.122;5.406;2023-05-14T05:50:40;101985.59;;;17.47;61.77
71735;BME280;59577;52.122;5.406;2023-05-14T05:53:09;102006.44;;;16.79;64.34
71735;BME280;59577;52.122;5.406;2023-05-14T05:55:36;102000.88;;;16.29;66.00
71735;BME280;59577;52.122;5.406;2023-05-14T05:58:03;101998.78;;;15.99;67.13
71735;BME280;59577;52.122;5.406;2023-05-14T06:00:29;101992.69;;;15.70;67.40
71735;BME280;59577;52.122;5.406;2023-05-14T06:02:56;101994.94;;;15.65;69.29
71735;BME280;59577;52.122;5.406;2023-05-14T06:05:23;102009.22;;;15.58;69.53
71735;BME280;59577;52.122;5.406;2023-05-14T06:07:49;102006.53;;;15.42;69.51
71735;BME280;59577;52.122;5.406;2023-05-14T06:10:16;101999.75;;;15.36;70.07
71735;BME280;59577;52.122;5.406;2023-05-14T06:12:42;101996.59;;;15.34;70.07
71735;BME280;59577;52.122;5.406;2023-05-14T06:15:09;101991.44;;;16.92;67.86
71735;BME280;59577;52.122;5.406;2023-05-14T06:17:37;102006.78;;;16.54;67.17
71735;BME280;59577;52.122;5.406;2023-05-14T06:20:05;102003.69;;;16.32;68.46
71735;BME280;59577;52.122;5.406;2023-05-14T06:22:33;102000.34;;;16.00;68.35
71735;BME280;59577;52.122;5.406;2023-05-14T06:24:59;101998.19;;;16.98;68.25
71735;BME280;59577;52.122;5.406;2023-05-14T06:27:26;102008.34;;;16.98;67.37
71735;BME280;59577;52.122;5.406;2023-05-14T06:29:52;102015.28;;;16.49;67.48
71735;BME280;59577;52.122;5.406;2023-05-14T06:32:19;102021.03;;;16.21;68.79
71735;BME280;59577;52.122;5.406;2023-05-14T06:34:46;102017.09;;;15.98;68.74
71735;BME280;59577;52.122;5.406;2023-05-14T06:37:12;102005.88;;;18.03;66.73
71735;BME280;59577;52.122;5.406;2023-05-14T06:39:39;102005.09;;;20.93;61.05
71735;BME280;59577;52.122;5.406;2023-05-14T06:42:09;102003.19;;;22.63;55.65
71735;BME280;59577;52.122;5.406;2023-05-14T06:44:35;101993.84;;;22.46;53.99
71735;BME280;59577;52.122;5.406;2023-05-14T06:47:02;102007.25;;;21.77;54.32
71735;BME280;59577;52.122;5.406;2023-05-14T06:49:28;102007.03;;;22.20;55.17
71735;BME280;59577;52.122;5.406;2023-05-14T06:51:55;101997.53;;;23.88;51.37
71735;BME280;59577;52.122;5.406;2023-05-14T06:54:21;102002.81;;;24.84;47.21
71735;BME280;59577;52.122;5.406;2023-05-14T06:56:48;101993.75;;;23.74;48.24
71735;BME280;59577;52.122;5.406;2023-05-14T06:59:14;101992.56;;;24.06;48.62
71735;BME280;59577;52.122;5.406;2023-05-14T07:01:41;101993.44;;;24.27;48.18
71735;BME280;59577;52.122;5.406;2023-05-14T07:04:08;101984.44;;;24.46;48.19
71735;BME280;59577;52.122;5.406;2023-05-14T07:06:34;101988.63;;;23.42;49.31
71735;BME280;59577;52.122;5.406;2023-05-14T07:09:01;101989.25;;;22.28;51.32
71735;BME280;59577;52.122;5.406;2023-05-14T07:11:28;101995.53;;;21.55;53.52
71735;BME280;59577;52.122;5.406;2023-05-14T07:13:55;101994.44;;;21.20;52.92
71735;BME280;59577;52.122;5.406;2023-05-14T07:16:21;101989.34;;;20.93;54.99
71735;BME280;59577;52.122;5.406;2023-05-14T07:18:55;102000.75;;;20.81;55.21
71735;BME280;59577;52.122;5.406;2023-05-14T07:21:22;101991.31;;;20.64;55.63
71735;BME280;59577;52.122;5.406;2023-05-14T07:23:48;101993.28;;;20.53;56.08
71735;BME280;59577;52.122;5.406;2023-05-14T07:26:15;101989.66;;;21.31;55.62
71735;BME280;59577;52.122;5.406;2023-05-14T07:28:41;101995.19;;;21.20;54.88
71735;BME280;59577;52.122;5.406;2023-05-14T07:31:08;101985.41;;;22.11;55.58
71735;BME280;59577;52.122;5.406;2023-05-14T07:33:34;101982.56;;;23.20;53.38
71735;BME280;59577;52.122;5.406;2023-05-14T07:36:01;101989.47;;;24.00;50.72
71735;BME280;59577;52.122;5.406;2023-05-14T07:38:28;101989.50;;;24.24;51.54
71735;BME280;59577;52.122;5.406;2023-05-14T07:40:55;101985.72;;;24.65;50.33
71735;BME280;59577;52.122;5.406;2023-05-14T07:43:21;101985.84;;;24.82;50.13
71735;BME280;59577;52.122;5.406;2023-05-14T07:45:48;101985.78;;;24.85;49.70
71735;BME280;59577;52.122;5.406;2023-05-14T07:48:14;101975.69;;;24.95;49.37
71735;BME280;59577;52.122;5.406;2023-05-14T07:50:41;101974.59;;;25.12;50.21
71735;BME280;59577;52.122;5.406;2023-05-14T07:53:07;101972.38;;;25.24;48.47
71735;BME280;59577;52.122;5.406;2023-05-14T07:55:34;101972.53;;;25.17;46.43
71735;BME280;59577;52.122;5.406;2023-05-14T07:58:00;101978.59;;;24.88;46.23
71735;BME280;59577;52.122;5.406;2023-05-14T08:00:27;101978.13;;;24.93;49.24
71735;BME280;59577;52.122;5.406;2023-05-14T08:02:54;101986.53;;;24.66;49.33
71735;BME280;59577;52.122;5.406;2023-05-14T08:05:21;101974.16;;;24.94;50.16
71735;BME280;59577;52.122;5.406;2023-05-14T08:07:47;101975.81;;;25.11;48.39
71735;BME280;59577;52.122;5.406;2023-05-14T08:10:14;101990.84;;;25.10;49.54
71735;BME280;59577;52.122;5.406;2023-05-14T08:12:40;101976.38;;;24.79;49.34
71735;BME280;59577;52.122;5.406;2023-05-14T08:15:08;101972.69;;;24.38;48.27
71735;BME280;59577;52.122;5.406;2023-05-14T08:17:35;101981.59;;;23.99;50.38
71735;BME280;59577;52.122;5.406;2023-05-14T08:20:01;101985.13;;;23.69;50.53
71735;BME280;59577;52.122;5.406;2023-05-14T08:22:28;101979.88;;;23.81;51.11
71735;BME280;59577;52.122;5.406;2023-05-14T08:24:54;101977.22;;;24.52;52.04
71735;BME280;59577;52.122;5.406;2023-05-14T08:27:21;101979.84;;;25.07;50.20
71735;BME280;59577;52.122;5.406;2023-05-14T08:29:48;101976.88;;;25.38;49.97
71735;BME280;59577;52.122;5.406;2023-05-14T08:32:14;101978.84;;;25.77;49.06
71735;BME280;59577;52.122;5.406;2023-05-14T08:34:49;101972.09;;;26.15;49.30
71735;BME280;59577;52.122;5.406;2023-05-14T08:37:16;101971.56;;;26.36;47.54
71735;BME280;59577;52.122;5.406;2023-05-14T08:39:43;101959.47;;;26.59;48.35
71735;BME280;59577;52.122;5.406;2023-05-14T08:42:12;101960.63;;;26.62;45.67
71735;BME280;59577;52.122;5.406;2023-05-14T08:44:48;101967.56;;;26.70;46.70
71735;BME280;59577;52.122;5.406;2023-05-14T08:47:20;101966.22;;;26.75;46.13
71735;BME280;59577;52.122;5.406;2023-05-14T08:49:52;101950.81;;;26.74;46.06
71735;BME280;59577;52.122;5.406;2023-05-14T08:52:21;101948.59;;;26.81;46.00
71735;BME280;59577;52.122;5.406;2023-05-14T08:54:49;101948.25;;;26.79;46.10
71735;BME280;59577;52.122;5.406;2023-05-14T08:57:17;101956.06;;;26.85;46.38
71735;BME280;59577;52.122;5.406;2023-05-14T08:59:44;101954.84;;;26.86;46.37
71735;BME280;59577;52.122;5.406;2023-05-14T09:02:13;101946.75;;;26.91;46.16
71735;BME280;59577;52.122;5.406;2023-05-14T09:04:40;101949.84;;;26.80;45.96
71735;BME280;59577;52.122;5.406;2023-05-14T09:07:07;101945.34;;;26.70;45.90
71735;BME280;59577;52.122;5.406;2023-05-14T09:09:34;101944.72;;;26.62;45.34
71735;BME280;59577;52.122;5.406;2023-05-14T09:12:01;101943.09;;;26.65;44.13
71735;BME280;59577;52.122;5.406;2023-05-14T09:14:28;101931.78;;;26.72;45.73
71735;BME280;59577;52.122;5.406;2023-05-14T09:16:55;101936.47;;;26.75;44.66
71735;BME280;59577;52.122;5.406;2023-05-14T09:19:22;101939.72;;;26.87;45.73
71735;BME280;59577;52.122;5.406;2023-05-14T09:21:49;101932.34;;;27.09;45.63
71735;BME280;59577;52.122;5.406;2023-05-14T09:24:20;101932.00;;;27.36;45.67
71735;BME280;59577;52.122;5.406;2023-05-14T09:26:49;101927.78;;;27.57;45.04
71735;BME280;59577;52.122;5.406;2023-05-14T09:29:16;101928.91;;;27.73;44.81
71735;BME280;59577;52.122;5.406;2023-05-14T09:31:43;101924.56;;;27.72;43.81
71735;BME280;59577;52.122;5.406;2023-05-14T09:34:10;101930.78;;;27.63;44.28
71735;BME280;59577;52.122;5.406;2023-05-14T09:36:36;101929.34;;;27.58;44.91
71735;BME280;59577;52.122;5.406;2023-05-14T09:39:03;101917.56;;;27.80;44.78
71735;BME280;59577;52.122;5.406;2023-05-14T09:41:30;101927.78;;;27.83;41.24
71735;BME280;59577;52.122;5.406;2023-05-14T09:43:56;101921.91;;;27.43;43.44
71735;BME280;59577;52.122;5.406;2023-05-14T09:46:23;101911.69;;;27.10;42.43
71735;BME280;59577;52.122;5.406;2023-05-14T09:48:54;101917.78;;;27.34;41.90
71735;BME280;59577;52.122;5.406;2023-05-14T09:51:21;101916.41;;;27.39;41.04
71735;BME280;59577;52.122;5.406;2023-05-14T09:53:49;101914.03;;;27.25;40.66
71735;BME280;59577;52.122;5.406;2023-05-14T09:56:17;101911.28;;;26.82;41.53
71735;BME280;59577;52.122;5.406;2023-05-14T09:58:44;101921.88;;;26.71;45.52
71735;BME280;59577;52.122;5.406;2023-05-14T10:01:11;101917.34;;;27.07;42.40
71735;BME280;59577;52.122;5.406;2023-05-14T10:03:38;101917.34;;;27.07;42.25
71735;BME280;59577;52.122;5.406;2023-05-14T10:06:05;101916.13;;;27.50;45.67
71735;BME280;59577;52.122;5.406;2023-05-14T10:08:33;101904.44;;;27.93;43.47
71735;BME280;59577;52.122;5.406;2023-05-14T10:11:05;101905.53;;;28.09;43.05
71735;BME280;59577;52.122;5.406;2023-05-14T10:13:39;101906.03;;;27.27;40.19
71735;BME280;59577;52.122;5.406;2023-05-14T10:16:10;101903.56;;;26.74;44.00
71735;BME280;59577;52.122;5.406;2023-05-14T10:18:42;101905.66;;;26.99;41.33
71735;BME280;59577;52.122;5.406;2023-05-14T10:21:13;101904.09;;;26.52;44.39
71735;BME280;59577;52.122;5.406;2023-05-14T10:23:40;101893.88;;;27.08;43.77
71735;BME280;59577;52.122;5.406;2023-05-14T10:26:07;101900.97;;;27.38;40.75
71735;BME280;59577;52.122;5.406;2023-05-14T10:28:35;101894.81;;;27.17;43.76
71735;BME280;59577;52.122;5.406;2023-05-14T10:31:02;101890.25;;;27.24;44.36
71735;BME280;59577;52.122;5.406;2023-05-14T10:33:28;101893.19;;;27.58;44.61
71735;BME280;59577;52.122;5.406;2023-05-14T10:35:56;101891.38;;;27.90;43.26
71735;BME280;59577;52.122;5.406;2023-05-14T10:38:32;101887.63;;;27.71;41.70
71735;BME280;59577;52.122;5.406;2023-05-14T10:41:09;101893.75;;;27.79;43.78
71735;BME280;59577;52.122;5.406;2023-05-14T10:43:38;101886.72;;;27.74;42.67
71735;BME280;59577;52.122;5.406;2023-05-14T10:46:06;101890.50;;;27.81;41.54
71735;BME280;59577;52.122;5.406;2023-05-14T10:48:34;101871.50;;;27.53;42.14
71735;BME280;59577;52.122;5.406;2023-05-14T10:51:01;101866.50;;;27.74;43.21
71735;BME280;59577;52.122;5.406;2023-05-14T10:53:42;101869.84;;;27.94;42.45
71735;BME280;59577;52.122;5.406;2023-05-14T10:56:12;101874.72;;;28.03;43.37
71735;BME280;59577;52.122;5.406;2023-05-14T10:58:41;101870.31;;;28.15;42.45
71735;BME280;59577;52.122;5.406;2023-05-14T11:01:09;101861.97;;;28.15;43.01
71735;BME280;59577;52.122;5.406;2023-05-14T11:03:41;101861.06;;;28.18;43.03
71735;BME280;59577;52.122;5.406;2023-05-14T11:06:09;101866.69;;;27.92;41.77
71735;BME280;59577;52.122;5.406;2023-05-14T11:08:37;101858.22;;;28.09;40.62
71735;BME280;59577;52.122;5.406;2023-05-14T11:11:04;101862.91;;;27.86;38.79
71735;BME280;59577;52.122;5.406;2023-05-14T11:13:31;101850.59;;;26.94;40.05
71735;BME280;59577;52.122;5.406;2023-05-14T11:16:00;101859.25;;;26.54;40.04
71735;BME280;59577;52.122;5.406;2023-05-14T11:18:46;101858.88;;;26.39;40.19
71735;BME280;59577;52.122;5.406;2023-05-14T11:21:13;101851.41;;;26.19;42.60
71735;BME280;59577;52.122;5.406;2023-05-14T11:23:40;101851.66;;;26.41;42.39
71735;BME280;59577;52.122;5.406;2023-05-14T11:26:06;101851.16;;;26.59;42.66
71735;BME280;59577;52.122;5.406;2023-05-14T11:28:33;101853.38;;;26.94;45.06
71735;BME280;59577;52.122;5.406;2023-05-14T11:30:59;101851.78;;;27.22;43.60
71735;BME280;59577;52.122;5.406;2023-05-14T11:33:27;101839.09;;;27.08;41.09
71735;BME280;59577;52.122;5.406;2023-05-14T11:35:54;101845.31;;;27.25;43.33
71735;BME280;59577;52.122;5.406;2023-05-14T11:38:21;101841.91;;;27.34;42.59
71735;BME280;59577;52.122;5.406;2023-05-14T11:40:55;101840.31;;;27.07;40.68
71735;BME280;59577;52.122;5.406;2023-05-14T11:43:22;101831.03;;;26.85;44.66
71735;BME280;59577;52.122;5.406;2023-05-14T11:45:52;101833.41;;;26.99;43.76
71735;BME280;59577;52.122;5.406;2023-05-14T11:48:20;101825.81;;;26.87;41.69
71735;BME280;59577;52.122;5.406;2023-05-14T11:50:48;101827.94;;;26.53;40.87
71735;BME280;59577;52.122;5.406;2023-05-14T11:53:19;101823.34;;;26.46;41.54
71735;BME280;59577;52.122;5.406;2023-05-14T11:55:46;101826.97;;;26.14;41.45
71735;BME280;59577;52.122;5.406;2023-05-14T11:58:13;101820.13;;;26.19;46.94
71735;BME280;59577;52.122;5.406;2023-05-14T12:00:43;101828.81;;;26.50;46.31
71735;BME280;59577;52.122;5.406;2023-05-14T12:03:10;101821.13;;;26.83;45.14
71735;BME280;59577;52.122;5.406;2023-05-14T12:05:38;101827.19;;;27.08;44.61
71735;BME280;59577;52.122;5.406;2023-05-14T12:08:28;101816.53;;;27.32;44.77
71735;BME280;59577;52.122;5.406;2023-05-14T12:10:58;101812.97;;;27.44;44.87
71735;BME280;59577;52.122;5.406;2023-05-14T12:13:31;101818.84;;;27.72;44.68
71735;BME280;59577;52.122;5.406;2023-05-14T12:15:59;101805.34;;;27.96;44.18
71735;BME280;59577;52.122;5.406;2023-05-14T12:18:31;101810.16;;;27.95;42.69
71735;BME280;59577;52.122;5.406;2023-05-14T12:21:02;101798.56;;;27.97;43.97
71735;BME280;59577;52.122;5.406;2023-05-14T12:23:30;101798.13;;;27.99;44.25
71735;BME280;59577;52.122;5.406;2023-05-14T12:26:01;101797.81;;;27.97;43.67
71735;BME280;59577;52.122;5.406;2023-05-14T12:28:28;101803.03;;;27.94;43.59
71735;BME280;59577;52.122;5.406;2023-05-14T12:30:55;101803.03;;;27.94;43.44
71735;BME280;59577;52.122;5.406;2023-05-14T12:33:22;101792.88;;;28.01;43.95
71735;BME280;59577;52.122;5.406;2023-05-14T12:35:49;101789.66;;;28.02;43.48
71735;BME280;59577;52.122;5.406;2023-05-14T12:38:16;101792.09;;;28.00;44.04
71735;BME280;59577;52.122;5.406;2023-05-14T12:40:42;101784.41;;;28.04;42.68
71735;BME280;59577;52.122;5.406;2023-05-14T12:43:09;101784.53;;;28.01;43.51
71735;BME280;59577;52.122;5.406;2023-05-14T12:45:35;101784.78;;;27.93;41.72
71735;BME280;59577;52.122;5.406;2023-05-14T12:48:02;101778.16;;;27.65;42.80
71735;BME280;59577;52.122;5.406;2023-05-14T12:50:29;101778.34;;;27.71;43.35
71735;BME280;59577;52.122;5.406;2023-05-14T12:52:55;101784.59;;;27.62;41.91